LHR weather

London Heathrow Airport
London, England, United Kingdom

Public forecast

Using degrees Celsius for public forecast. Weather courtesy of forecast.io.

Current aviation weather report (METAR) for London Heathrow Airport

Retrieved 2020/01/24 19:20 UTC (25 minutes ago):

EGLL 241920Z AUTO 22005KT 150V270 7000 OVC019 06/06 Q1022 NOSIG

Aviation forecast (TAF) for London Heathrow Airport

Retrieved 2020/01/24 18:00 UTC (2 hours ago):

TAF EGLL 241659Z 2418/2524 24003KT 8000 BKN018 TEMPO 2418/2424 BKN012 PROB30 TEMPO 2418/2502 4000 -RADZ BKN009 TEMPO 2502/2510 9999 BECMG 2507/2510 BKN014 TEMPO 2509/2518 4000 -DZ BKN008 PROB30 TEMPO 2512/2524 DZ BR BKN004 BECMG 2521/2524 18010KT